Time;durP1;ratioP1;P1;durP2;ratioP2;P2;SDS_P1;SDS_P2;PMS_P1;PMS_P2;Temp;Humidity;BMP_temperature;BMP_pressure;BME280_temperature;BME280_humidity;BME280_pressure;Samples;Min_cycle;Max_cycle;Signal;HPM_P1;HPM_P2
2022/10/04 00:01:48;;;;;;;9.95;6.78;;;;;;;15.49;59.76;102321.31;4954364;28;114241;-71
2022/10/04 00:04:18;;;;;;;8.43;6.68;;;;;;;15.49;59.71;102316.81;4970692;28;114802;-71
2022/10/04 00:06:53;;;;;;;13.02;6.90;;;;;;;15.49;59.65;102318.63;4971546;28;124049;-72
2022/10/04 00:09:22;;;;;;;;;;;;;;;15.49;59.36;102310.63;4954544;28;123354;-71
2022/10/04 00:11:53;;;;;;;13.73;6.13;;;;;;;15.50;59.58;102307.00;4972417;28;114417;-71
2022/10/04 00:14:34;;;;;;;11.75;5.80;;;;;;;15.50;59.61;102307.00;4967842;28;113957;-71
2022/10/04 00:17:10;;;;;;;10.52;6.10;;;;;;;15.49;59.58;102306.16;4953644;28;123719;-72
2022/10/04 00:19:46;;;;;;;9.02;5.82;;;;;;;15.50;59.62;102307.00;4971379;28;124890;-72
2022/10/04 00:22:19;;;;;;;12.85;7.07;;;;;;;15.50;59.77;102307.00;4954153;28;113805;-73
2022/10/04 00:25:12;;;;;;;13.73;7.10;;;;;;;15.49;59.69;102295.47;4970625;28;114184;-72
2022/10/04 00:28:18;;;;;;;14.90;7.70;;;;;;;15.48;59.78;102292.84;4953268;28;123404;-72
2022/10/04 00:31:05;;;;;;;10.70;7.20;;;;;;;15.48;59.70;102282.16;4947173;28;123917;-72
2022/10/04 00:33:38;;;;;;;10.15;6.80;;;;;;;15.49;59.78;102291.94;4964809;28;114104;-72
2022/10/04 00:36:23;;;;;;;14.30;7.72;;;;;;;15.49;59.72;102294.59;4969373;28;113934;-72
2022/10/04 00:39:03;;;;;;;9.67;7.43;;;;;;;15.49;59.84;102278.59;4957487;28;123995;-72
2022/10/04 00:41:45;;;;;;;11.25;7.38;;;;;;;15.47;59.77;102281.31;4962747;28;124005;-72
2022/10/04 00:44:43;;;;;;;13.15;7.47;;;;;;;15.46;60.01;102286.72;4978129;28;114107;-72
2022/10/04 00:47:25;;;;;;;11.27;7.40;;;;;;;15.44;59.98;102286.78;4969019;28;115153;-72
2022/10/04 00:49:58;;;;;;;12.77;7.82;;;;;;;15.44;60.04;102269.91;4963964;28;123919;-71
2022/10/04 00:52:30;;;;;;;14.13;7.65;;;;;;;15.44;60.13;102267.22;4958407;28;123444;-72
2022/10/04 00:55:06;;;;;;;14.18;8.13;;;;;;;15.43;60.03;102278.84;4946585;28;114657;-72
2022/10/04 00:57:42;;;;;;;12.05;7.68;;;;;;;15.42;59.95;102283.31;4940290;28;114850;-72
2022/10/04 01:00:17;;;;;;;13.80;7.47;;;;;;;15.41;60.06;102280.69;4968869;28;123648;-72
2022/10/04 01:02:59;;;;;;;14.30;7.82;;;;;;;15.40;59.97;102265.63;4965712;28;123767;-71
2022/10/04 01:05:38;;;;;;;18.00;9.02;;;;;;;15.36;60.11;102276.41;4961951;28;114553;-72
2022/10/04 01:08:16;;;;;;;12.27;8.10;;;;;;;15.35;60.08;102272.03;4953642;28;113012;-72
2022/10/04 01:10:55;;;;;;;12.30;8.40;;;;;;;15.32;60.17;102266.81;4952919;28;124797;-72
2022/10/04 01:13:50;;;;;;;11.20;8.10;;;;;;;15.31;60.16;102259.75;4964130;28;124761;-72
2022/10/04 01:16:18;;;;;;;12.73;8.35;;;;;;;15.29;60.10;102256.25;4964601;28;113955;-73
2022/10/04 01:18:46;;;;;;;14.82;8.73;;;;;;;15.27;60.34;102247.44;4934409;28;113354;-72
2022/10/04 01:21:22;;;;;;;16.92;9.32;;;;;;;15.26;60.27;102250.19;4967904;28;124755;-72
2022/10/04 01:23:50;;;;;;;12.73;8.93;;;;;;;15.25;60.42;102243.97;4970797;28;123547;-72
2022/10/04 01:26:30;;;;;;;14.00;9.10;;;;;;;15.24;60.45;102233.34;4970905;28;114332;-72
2022/10/04 01:28:59;;;;;;;16.83;9.55;;;;;;;15.23;60.43;102235.16;4951251;28;113294;-72
2022/10/04 01:31:27;;;;;;;14.15;9.45;;;;;;;15.23;60.47;102229.81;4970486;28;123851;-72
2022/10/04 01:33:55;;;;;;;16.17;9.82;;;;;;;15.22;60.49;102222.78;4970238;28;124318;-72
2022/10/04 01:36:22;;;;;;;15.23;10.85;;;;;;;15.23;60.36;102234.31;4950456;28;113388;-72
2022/10/04 01:38:50;;;;;;;14.07;10.52;;;;;;;15.22;60.57;102221.88;4950194;28;114761;-72
2022/10/04 01:41:24;;;;;;;18.08;11.32;;;;;;;15.21;60.60;102226.34;4933508;28;123017;-72
2022/10/04 01:43:57;;;;;;;17.95;10.93;;;;;;;15.22;60.76;102209.44;4944542;28;122779;-72
2022/10/04 01:46:33;;;;;;;19.45;12.05;;;;;;;15.23;60.75;102207.63;4962998;28;115047;-72
2022/10/04 01:49:05;;;;;;;16.02;11.55;;;;;;;15.22;60.72;102201.41;4957954;28;114851;-72
2022/10/04 01:51:42;;;;;;;20.58;12.40;;;;;;;15.23;60.78;102203.13;4969094;28;124067;-72
2022/10/04 01:54:18;;;;;;;17.25;11.18;;;;;;;15.25;60.75;102213.75;4965761;28;123065;-72
2022/10/04 01:56:52;;;;;;;15.98;11.40;;;;;;;15.25;60.81;102211.09;4958934;28;114438;-72
2022/10/04 01:59:28;;;;;;;19.52;11.57;;;;;;;15.25;60.69;102208.41;4949993;28;114137;-72
2022/10/04 02:02:03;;;;;;;16.83;11.43;;;;;;;15.24;60.66;102204.88;4950313;28;124071;-72
2022/10/04 02:04:32;;;;;;;;;;;;;;;15.24;60.28;102212.88;4949170;28;123240;-73
2022/10/04 02:07:01;;;;;;;16.38;10.48;;;;;;;15.25;60.34;102201.25;4961227;28;114689;-72
2022/10/04 02:09:34;;;;;;;16.42;11.50;;;;;;;15.24;60.47;102199.53;4952306;28;114381;-71
2022/10/04 02:12:01;;;;;;;14.57;10.45;;;;;;;15.24;60.66;102199.53;4966453;28;125398;-72
2022/10/04 02:14:35;;;;;;;18.02;11.02;;;;;;;15.22;60.46;102185.41;4952324;28;124103;-72
2022/10/04 02:17:09;;;;;;;16.08;10.38;;;;;;;15.22;60.38;102196.09;4951863;28;114070;-72
2022/10/04 02:19:41;;;;;;;15.75;10.40;;;;;;;15.20;60.34;102192.63;4952398;28;114822;-72
2022/10/04 02:22:10;;;;;;;17.65;10.70;;;;;;;15.18;60.12;102175.75;4952026;28;122956;-72
2022/10/04 02:24:43;;;;;;;17.48;11.10;;;;;;;15.15;60.38;102167.91;4951886;28;123443;-72
2022/10/04 02:27:10;;;;;;;18.90;10.98;;;;;;;15.13;60.23;102161.78;4967603;28;114682;-73
2022/10/04 02:29:38;;;;;;;15.38;10.90;;;;;;;15.12;60.28;102157.34;4969439;28;114150;-72
2022/10/04 02:34:54;;;;;;;19.52;11.57;;;;;;;15.06;60.26;102142.47;4946922;28;124572;-71
2022/10/04 02:37:26;;;;;;;14.65;11.27;;;;;;;15.05;60.41;102145.22;4940741;28;116469;-72
2022/10/04 02:40:04;;;;;;;17.70;11.05;;;;;;;15.01;60.57;102155.13;4969867;28;114838;-71
2022/10/04 02:42:43;;;;;;;16.73;11.23;;;;;;;14.98;60.35;102145.47;4966749;28;124047;-73
2022/10/04 02:45:16;;;;;;;18.73;12.27;;;;;;;14.95;60.31;102145.59;4968826;28;123675;-72
2022/10/04 02:47:51;;;;;;;16.45;11.38;;;;;;;14.93;60.45;102146.59;4952535;28;113733;-72
2022/10/04 02:50:34;;;;;;;20.35;11.55;;;;;;;14.90;60.50;102142.28;4951920;28;113777;-72
2022/10/04 02:53:13;;;;;;;26.13;12.27;;;;;;;14.88;60.36;102138.81;4967321;28;124576;-72
2022/10/04 02:55:41;;;;;;;21.67;12.27;;;;;;;14.85;60.61;102128.25;4955733;28;123630;-72
2022/10/04 02:58:12;;;;;;;19.63;11.57;;;;;;;14.84;60.63;102128.31;4952220;28;114372;-72
2022/10/04 03:00:49;;;;;;;17.55;11.57;;;;;;;14.81;60.51;102117.81;4918936;28;113006;-72
2022/10/04 03:03:24;;;;;;;23.25;11.60;;;;;;;14.78;60.52;102113.44;4960676;28;124035;-72
2022/10/04 03:05:57;;;;;;;17.27;11.52;;;;;;;14.75;60.66;102116.25;4948572;28;124132;-72
2022/10/04 03:08:26;;;;;;;17.70;11.05;;;;;;;14.72;60.51;102113.72;4969418;28;114921;-72
2022/10/04 03:10:55;;;;;;;21.50;12.18;;;;;;;14.69;60.36;102112.06;4969097;28;114330;-72
2022/10/04 03:13:22;;;;;;;18.00;11.25;;;;;;;14.67;60.58;102107.69;4951115;28;123730;-72
2022/10/04 03:15:49;;;;;;;20.75;11.50;;;;;;;14.63;60.49;102112.28;4968910;28;124244;-72
2022/10/04 03:18:18;;;;;;;20.50;11.88;;;;;;;14.63;60.62;102111.44;4969661;28;114188;-73
2022/10/04 03:20:46;;;;;;;18.15;11.48;;;;;;;14.59;60.69;102111.53;4954803;28;113874;-71
2022/10/04 03:23:18;;;;;;;18.75;11.45;;;;;;;14.57;60.69;102100.06;4957842;28;124251;-71
2022/10/04 03:25:59;;;;;;;19.05;11.95;;;;;;;14.55;60.77;102099.25;4968128;28;125484;-71
2022/10/04 03:28:27;;;;;;;17.55;11.30;;;;;;;14.54;60.87;102097.53;4938997;28;114303;-71
2022/10/04 03:30:56;;;;;;;20.67;11.60;;;;;;;14.54;60.61;102097.53;4972464;28;114788;-72
2022/10/04 03:33:25;;;;;;;18.65;11.25;;;;;;;14.52;60.79;102104.72;4942455;28;123597;-71
2022/10/04 03:35:55;;;;;;;18.85;11.25;;;;;;;14.51;60.78;102104.78;4966445;28;123816;-71
2022/10/04 03:38:25;;;;;;;20.23;10.80;;;;;;;14.49;60.73;102099.50;4969785;28;114509;-71
2022/10/04 03:40:59;;;;;;;16.63;11.32;;;;;;;14.47;60.84;102089.84;4973246;28;114152;-71
2022/10/04 03:43:31;;;;;;;15.50;10.80;;;;;;;14.46;60.71;102099.63;4969368;28;124210;-71
2022/10/04 03:46:00;;;;;;;15.00;10.55;;;;;;;14.45;60.59;102100.56;4952673;28;122777;-71
2022/10/04 03:48:34;;;;;;;16.58;11.13;;;;;;;14.43;60.73;102093.53;4962244;28;113955;-71
2022/10/04 03:51:05;;;;;;;19.75;11.48;;;;;;;14.41;60.54;102090.97;4963417;28;114381;-72
2022/10/04 03:53:43;;;;;;;19.58;10.35;;;;;;;14.38;60.57;102091.09;4963263;28;124177;-72
2022/10/04 03:56:34;;;;;;;18.58;10.13;;;;;;;14.35;60.46;102091.19;4946197;28;123875;-72
2022/10/04 03:59:05;;;;;;;16.67;10.38;;;;;;;14.32;60.55;102080.69;4966046;28;114920;-72
2022/10/04 04:01:43;;;;;;;16.40;11.23;;;;;;;14.29;60.57;102086.13;4941789;28;113195;-72
2022/10/04 04:04:35;;;;;;;16.63;10.70;;;;;;;14.27;60.48;102088.84;4954530;28;123179;-72
2022/10/04 04:07:02;;;;;;;15.32;10.50;;;;;;;14.25;60.61;102089.84;4971666;28;123705;-72
2022/10/04 04:09:55;;;;;;;19.52;11.45;;;;;;;14.19;60.44;102078.50;4948062;28;113969;-72
2022/10/04 04:12:33;;;;;;;19.65;11.18;;;;;;;14.16;60.52;102075.94;4965705;28;113975;-72
2022/10/04 04:15:01;;;;;;;18.30;10.68;;;;;;;14.13;60.65;102064.59;4953704;28;123741;-72
2022/10/04 04:17:40;;;;;;;18.88;11.05;;;;;;;14.08;60.76;102062.09;4951852;28;123713;-72
2022/10/04 04:20:30;;;;;;;16.77;11.25;;;;;;;14.03;60.65;102053.41;4965871;28;115324;-72
2022/10/04 04:23:18;;;;;;;17.92;10.63;;;;;;;13.99;60.70;102062.44;4970655;28;114492;-72
2022/10/04 04:25:48;;;;;;;16.75;10.68;;;;;;;13.95;60.99;102060.84;4966537;28;125603;-72
2022/10/04 04:28:33;;;;;;;19.08;10.57;;;;;;;13.92;60.83;102066.28;4926167;28;122626;-72
2022/10/04 04:31:08;;;;;;;16.58;10.20;;;;;;;13.87;60.99;102062.94;4969659;28;113964;-72
2022/10/04 04:33:50;;;;;;;19.25;10.75;;;;;;;13.85;60.93;102070.13;4967329;28;113806;-72
2022/10/04 04:36:17;;;;;;;17.48;10.90;;;;;;;13.83;61.00;102079.03;4963036;28;124728;-71
2022/10/04 04:41:34;;;;;;;16.95;9.88;;;;;;;13.81;60.92;102069.38;4969481;28;115013;-72
2022/10/04 04:44:03;;;;;;;16.50;10.45;;;;;;;13.79;60.83;102066.78;4937976;28;113736;-72
2022/10/04 04:46:30;;;;;;;15.18;9.57;;;;;;;13.78;61.00;102058.84;4971144;28;124290;-72
2022/10/04 04:49:04;;;;;;;17.30;10.02;;;;;;;13.74;60.94;102058.09;4957472;28;123797;-72
2022/10/04 04:51:32;;;;;;;16.40;9.75;;;;;;;13.75;60.93;102053.63;4969686;28;114930;-72
2022/10/04 04:54:02;;;;;;;14.90;9.82;;;;;;;13.73;60.98;102056.38;4972998;28;113713;-72
2022/10/04 04:56:29;;;;;;;16.75;10.48;;;;;;;13.71;60.98;102047.59;4953870;28;124054;-72
2022/10/04 04:59:01;;;;;;;15.48;9.82;;;;;;;13.70;61.00;102055.63;4971814;28;123793;-71
2022/10/04 05:01:35;;;;;;;14.55;9.85;;;;;;;13.67;61.06;102051.25;4950360;28;113436;-72
2022/10/04 05:04:03;;;;;;;18.20;9.77;;;;;;;13.65;61.12;102047.78;4973113;28;113692;-72
2022/10/04 05:06:32;;;;;;;15.07;9.57;;;;;;;13.63;61.21;102047.00;4955509;28;123488;-71
2022/10/04 05:09:00;;;;;;;16.75;10.20;;;;;;;13.62;61.06;102045.28;4935682;28;123190;-72
2022/10/04 05:11:30;;;;;;;16.13;10.05;;;;;;;13.59;61.07;102032.06;4966569;28;115179;-71
2022/10/04 05:14:06;;;;;;;13.48;9.68;;;;;;;13.58;61.09;102035.63;4929856;28;113973;-72
2022/10/04 05:16:42;;;;;;;15.32;9.45;;;;;;;13.56;61.32;102032.16;4970617;28;124220;-71
2022/10/04 05:19:20;;;;;;;15.23;9.27;;;;;;;13.54;61.10;102042.00;4953908;28;124113;-72
2022/10/04 05:21:50;;;;;;;16.45;9.52;;;;;;;13.53;61.09;102053.59;4956496;28;114060;-74
2022/10/04 05:24:27;;;;;;;15.07;9.57;;;;;;;13.51;61.00;102044.81;4960240;28;114200;-74
2022/10/04 05:27:01;;;;;;;15.10;9.27;;;;;;;13.49;61.04;102057.31;4967951;28;124676;-71
2022/10/04 05:29:38;;;;;;;15.38;9.55;;;;;;;13.46;61.05;102052.94;4953856;28;122737;-71
2022/10/04 05:32:33;;;;;;;13.40;8.85;;;;;;;13.44;61.06;102049.50;4948580;28;114240;-71
2022/10/04 05:35:00;;;;;;;16.30;9.80;;;;;;;13.42;61.13;102062.84;4963736;28;114051;-71
2022/10/04 05:37:59;;;;;;;14.18;9.27;;;;;;;13.38;61.09;102055.91;4962266;28;124227;-71
2022/10/04 05:40:45;;;;;;;17.35;8.95;;;;;;;13.36;60.81;102063.09;4964776;28;123772;-71
2022/10/04 05:43:21;;;;;;;15.90;9.65;;;;;;;13.32;60.84;102056.16;4952912;28;113170;-71
2022/10/04 05:46:11;;;;;;;18.02;9.25;;;;;;;13.29;60.93;102066.84;4950047;28;113424;-71
2022/10/04 05:48:41;;;;;;;13.65;9.27;;;;;;;13.29;61.02;102066.00;4946712;28;124594;-74
2022/10/04 05:51:17;;;;;;;17.25;9.52;;;;;;;13.28;61.16;102070.47;4969012;28;124440;-71
2022/10/04 05:53:46;;;;;;;16.23;8.85;;;;;;;13.27;61.14;102062.53;4947429;28;113834;-71
2022/10/04 05:56:28;;;;;;;13.50;8.85;;;;;;;13.27;61.18;102071.38;4948157;28;114321;-71
2022/10/04 05:59:30;;;;;;;13.38;8.88;;;;;;;13.24;60.97;102064.38;4948212;28;123918;-72
2022/10/04 06:02:24;;;;;;;14.18;8.45;;;;;;;13.23;61.21;102059.09;4970532;28;123914;-71
2022/10/04 06:05:14;;;;;;;16.67;9.02;;;;;;;13.23;61.07;102053.78;4952487;28;115508;-72
2022/10/04 06:08:06;;;;;;;19.00;8.02;;;;;;;13.22;61.32;102060.00;4952700;28;114287;-72
2022/10/04 06:11:01;;;;;;;14.88;8.40;;;;;;;13.21;61.20;102058.28;4951757;28;124300;-72
2022/10/04 06:13:58;;;;;;;18.27;8.18;;;;;;;13.21;61.33;102068.94;4941482;28;123781;-72
2022/10/04 06:16:43;;;;;;;12.57;8.77;;;;;;;13.21;61.30;102063.63;4961509;28;113797;-73
2022/10/04 06:19:50;;;;;;;14.05;8.35;;;;;;;13.20;61.34;102067.19;4951495;28;113524;-72
2022/10/04 06:22:19;;;;;;;14.68;8.38;;;;;;;13.22;61.44;102058.25;4959554;28;124554;-72
2022/10/04 06:24:53;;;;;;;14.90;8.70;;;;;;;13.23;61.61;102067.09;4967182;28;122927;-72
2022/10/04 06:27:44;;;;;;;15.80;8.53;;;;;;;13.25;61.68;102062.56;4967440;28;114544;-73
2022/10/04 06:30:17;;;;;;;15.73;8.45;;;;;;;13.28;61.59;102075.78;4967600;28;114071;-72
2022/10/04 06:33:12;;;;;;;16.42;8.85;;;;;;;13.31;61.76;102069.50;4967894;28;124080;-73
2022/10/04 06:36:02;;;;;;;12.55;8.80;;;;;;;13.34;61.76;102067.59;4951381;28;123983;-72
2022/10/04 06:39:19;;;;;;;12.63;8.65;;;;;;;13.39;61.70;102070.97;4967880;28;114049;-72
2022/10/04 06:41:58;;;;;;;16.38;8.65;;;;;;;13.43;61.83;102072.56;4961029;28;113311;-72
2022/10/04 06:44:47;;;;;;;14.15;8.48;;;;;;;13.48;61.61;102068.88;4949369;28;124287;-72
2022/10/04 06:47:22;;;;;;;14.88;8.75;;;;;;;13.49;61.73;102065.31;4966179;28;123687;-72
2022/10/04 06:50:04;;;;;;;14.32;8.30;;;;;;;13.51;61.74;102060.78;4952485;28;114070;-72
2022/10/04 06:52:38;;;;;;;15.60;8.73;;;;;;;13.54;61.65;102060.66;4952270;28;113196;-71
2022/10/04 06:55:30;;;;;;;14.93;8.35;;;;;;;13.57;61.72;102049.91;4967469;28;124374;-72
2022/10/04 06:58:18;;;;;;;14.07;8.05;;;;;;;13.60;61.59;102055.13;4965976;28;122861;-72
2022/10/04 07:01:04;;;;;;;14.88;8.85;;;;;;;13.64;61.78;102046.06;4959554;28;115743;-72
2022/10/04 07:03:50;;;;;;;14.00;9.07;;;;;;;13.68;61.95;102042.38;4974126;28;114474;-72
2022/10/04 07:06:36;;;;;;;14.85;8.80;;;;;;;13.73;61.92;102050.16;4947578;28;124121;-72
2022/10/04 07:09:13;;;;;;;14.30;8.63;;;;;;;13.78;61.94;102054.38;4951919;28;122941;-72
2022/10/04 07:11:49;;;;;;;15.15;8.80;;;;;;;13.85;62.09;102060.34;4969537;28;114260;-72
2022/10/04 07:14:23;;;;;;;16.42;8.75;;;;;;;13.94;62.11;102059.13;4934881;28;112544;-72
2022/10/04 07:16:53;;;;;;;13.50;8.80;;;;;;;14.03;62.30;102064.06;4966315;28;124639;-72
2022/10/04 07:19:36;;;;;;;12.07;8.05;;;;;;;14.12;62.39;102058.34;4968690;28;123713;-72
2022/10/04 07:22:06;;;;;;;12.50;8.32;;;;;;;14.23;62.33;102059.75;4969128;28;114429;-72
2022/10/04 07:24:58;;;;;;;14.43;8.48;;;;;;;14.31;62.33;102052.28;4966964;28;113913;-72
2022/10/04 07:29:19;;;;;;;13.32;8.07;;;;;;;14.40;62.20;102046.56;4949529;28;124150;-72
2022/10/04 07:30:48;;;;;;;14.45;7.55;;;;;;;14.48;61.91;102060.44;4959609;28;124119;-72
2022/10/04 07:33:20;;;;;;;13.40;8.02;;;;;;;14.54;61.70;102057.53;4933037;28;113968;-72
2022/10/04 07:35:54;;;;;;;12.15;7.63;;;;;;;14.60;61.71;102062.63;4958359;28;112960;-72
2022/10/04 07:38:33;;;;;;;9.13;6.57;;;;;;;14.67;61.49;102054.38;4938274;28;123047;-73
2022/10/04 07:41:09;;;;;;;15.13;7.32;;;;;;;14.75;61.33;102062.94;4968543;28;123981;-72
2022/10/04 07:43:48;;;;;;;12.40;7.30;;;;;;;14.82;61.47;102053.69;4947558;28;113610;-72
2022/10/04 07:46:31;;;;;;;15.25;7.50;;;;;;;14.89;61.30;102049.84;4959275;28;113967;-72
2022/10/04 07:48:58;;;;;;;12.95;7.63;;;;;;;14.96;61.21;102051.31;4935442;28;125061;-72
2022/10/04 07:52:01;;;;;;;12.18;7.25;;;;;;;15.06;61.33;102051.75;4950551;28;123122;-72
2022/10/04 07:54:36;;;;;;;12.98;7.03;;;;;;;15.15;61.14;102058.50;4924757;28;115559;-72
2022/10/04 07:57:22;;;;;;;14.35;7.32;;;;;;;15.24;61.05;102055.41;4947649;28;114950;-72
2022/10/04 08:00:14;;;;;;;12.88;6.82;;;;;;;15.30;60.87;102049.78;4966884;28;124731;-72
2022/10/04 08:02:44;;;;;;;12.88;7.45;;;;;;;15.35;60.76;102053.13;4966381;28;124044;-72
2022/10/04 08:05:23;;;;;;;13.35;7.80;;;;;;;15.41;60.74;102051.09;4968253;28;116002;-72
2022/10/04 08:08:27;;;;;;;12.20;7.95;;;;;;;15.46;60.51;102046.41;4967976;28;114425;-71
2022/10/04 08:11:15;;;;;;;11.00;7.38;;;;;;;15.52;60.52;102043.44;4947915;28;124187;-73
2022/10/04 08:14:17;;;;;;;12.52;7.78;;;;;;;15.57;60.46;102046.78;4951837;28;124235;-72
2022/10/04 08:17:21;;;;;;;12.43;8.02;;;;;;;15.63;60.42;102035.81;4953585;28;114641;-72
2022/10/04 08:20:36;;;;;;;11.82;7.53;;;;;;;15.71;60.30;102039.00;4958778;28;113030;-71
2022/10/04 08:23:17;;;;;;;13.15;6.82;;;;;;;15.82;60.30;102034.97;4953183;28;124367;-72
2022/10/04 08:26:22;;;;;;;12.98;7.22;;;;;;;15.91;60.06;102034.53;4949867;28;123880;-72
2022/10/04 08:31:56;;;;;;;12.80;7.10;;;;;;;16.09;59.91;102044.31;4971611;28;114042;-72
2022/10/04 08:34:44;;;;;;;13.52;7.60;;;;;;;16.19;59.85;102039.38;4954008;28;124221;-71
2022/10/04 08:37:53;;;;;;;10.25;6.35;;;;;;;16.33;59.86;102036.00;4953426;28;123234;-72
2022/10/04 08:40:48;;;;;;;10.55;6.75;;;;;;;16.44;59.58;102039.00;4970086;28;114130;-71
2022/10/04 08:43:24;;;;;;;13.75;7.28;;;;;;;16.55;59.47;102039.31;4953781;28;112015;-71
2022/10/04 08:45:55;;;;;;;13.93;6.97;;;;;;;16.68;59.39;102036.03;4950951;28;124029;-72
2022/10/04 08:48:46;;;;;;;11.52;7.07;;;;;;;16.80;59.19;102034.53;4970887;28;124247;-73
2022/10/04 08:51:32;;;;;;;10.48;6.88;;;;;;;16.93;59.14;102036.53;4952877;28;115270;-72
2022/10/04 08:54:36;;;;;;;11.95;7.05;;;;;;;17.06;58.76;102043.91;4970632;28;114856;-72
2022/10/04 08:57:09;;;;;;;13.43;7.75;;;;;;;17.17;58.48;102043.34;4951560;28;124092;-72
2022/10/04 09:00:07;;;;;;;13.02;7.15;;;;;;;17.26;58.43;102027.63;4934443;28;123831;-72
2022/10/04 09:02:49;;;;;;;11.75;7.30;;;;;;;17.39;58.05;102048.41;4970216;28;114360;-72
2022/10/04 09:05:34;;;;;;;11.15;7.45;;;;;;;17.48;57.74;102037.19;4968258;28;112873;-71
2022/10/04 09:08:23;;;;;;;11.73;7.47;;;;;;;17.56;57.81;102034.94;4925974;28;123355;-71
2022/10/04 09:11:09;;;;;;;15.43;7.75;;;;;;;17.67;57.44;102037.88;4968467;28;124257;-72
2022/10/04 09:14:11;;;;;;;13.38;7.72;;;;;;;17.78;57.38;102028.38;4959200;28;114383;-72
2022/10/04 09:16:46;;;;;;;12.00;7.28;;;;;;;17.89;57.12;102026.84;4976434;28;112711;-72
2022/10/04 09:19:27;;;;;;;11.50;7.90;;;;;;;18.00;56.98;102028.91;4943210;28;123764;-71
2022/10/04 09:21:54;;;;;;;17.73;8.55;;;;;;;18.09;56.72;102033.72;4962762;28;124479;-72
2022/10/04 09:24:33;;;;;;;11.70;7.55;;;;;;;18.18;56.50;102036.84;4948554;28;113963;-72
2022/10/04 09:27:28;;;;;;;16.67;7.47;;;;;;;18.25;56.32;102028.38;4953710;28;114314;-72
2022/10/04 09:30:21;;;;;;;12.63;7.97;;;;;;;18.35;56.20;102034.03;4953810;28;123774;-71
2022/10/04 09:33:33;;;;;;;11.55;7.68;;;;;;;18.46;56.19;102036.97;4957931;28;123666;-72
2022/10/04 09:36:12;;;;;;;13.00;7.28;;;;;;;18.56;55.81;102025.69;4950192;28;113618;-71
2022/10/04 09:39:09;;;;;;;12.32;6.60;;;;;;;18.63;55.43;102019.00;4957819;28;114438;-72
2022/10/04 09:42:37;;;;;;;11.17;6.33;;;;;;;18.71;55.38;102019.38;4963108;28;124135;-72
2022/10/04 09:45:29;;;;;;;11.88;6.63;;;;;;;18.79;55.42;102013.53;4961947;28;124448;-72
2022/10/04 09:48:24;;;;;;;11.45;6.15;;;;;;;18.89;55.21;102011.19;4971105;28;114997;-72
2022/10/04 09:51:07;;;;;;;10.77;6.35;;;;;;;18.99;54.74;102017.72;4957501;28;114846;-71
2022/10/04 09:53:50;;;;;;;10.70;5.97;;;;;;;19.09;54.84;102013.50;4940526;28;123055;-72
2022/10/04 09:56:36;;;;;;;12.68;6.80;;;;;;;19.18;54.10;102021.00;4969802;28;124212;-72
2022/10/04 09:59:21;;;;;;;11.23;6.32;;;;;;;19.22;54.13;102025.19;4953669;28;114409;-72
2022/10/04 10:02:09;;;;;;;10.73;6.45;;;;;;;19.28;53.85;102015.03;4952875;28;114032;-72
2022/10/04 10:04:42;;;;;;;10.85;6.05;;;;;;;19.35;53.92;102013.69;4969523;28;124008;-72
2022/10/04 10:07:32;;;;;;;13.55;6.50;;;;;;;19.42;53.83;102009.63;4967564;28;123900;-72
2022/10/04 10:13:55;;;;;;;9.23;6.00;;;;;;;19.62;53.38;102008.38;4946307;28;113450;-72
2022/10/04 10:16:52;;;;;;;11.38;5.35;;;;;;;19.70;53.16;102013.25;4969666;28;124520;-72
2022/10/04 10:20:01;;;;;;;7.90;5.30;;;;;;;19.75;53.15;102005.78;4934779;28;124095;-72
2022/10/04 10:23:05;;;;;;;7.70;5.05;;;;;;;19.82;53.38;101999.03;4959422;28;114022;-72
2022/10/04 10:25:50;;;;;;;8.15;4.82;;;;;;;19.91;53.04;101985.00;4966888;28;113985;-72
2022/10/04 10:28:27;;;;;;;;;;;;;;;19.97;53.65;101984.59;4951944;28;122980;-72
2022/10/04 10:31:26;;;;;;;7.32;4.72;;;;;;;20.05;52.61;101992.13;4952622;28;122143;-72
2022/10/04 10:34:16;;;;;;;7.50;4.72;;;;;;;20.09;52.37;101982.88;4970097;28;114575;-72
2022/10/04 10:37:11;;;;;;;7.97;4.90;;;;;;;20.14;52.02;101979.91;4932021;28;113961;-72
2022/10/04 10:40:03;;;;;;;13.63;4.93;;;;;;;20.19;52.06;101983.13;4969409;28;124187;-72
2022/10/04 10:42:55;;;;;;;8.10;4.10;;;;;;;20.22;51.85;101982.94;4941449;28;124287;-72
2022/10/04 10:45:44;;;;;;;10.00;4.85;;;;;;;20.30;51.75;101985.94;4946550;28;114954;-72
2022/10/04 10:48:39;;;;;;;10.10;4.75;;;;;;;20.36;51.47;101984.66;4949287;28;115204;-72
2022/10/04 10:51:19;;;;;;;11.43;4.50;;;;;;;20.43;51.72;101997.59;4952775;28;124847;-72
2022/10/04 10:54:14;;;;;;;12.73;4.70;;;;;;;20.53;51.57;101994.28;4964737;28;123773;-72
2022/10/04 10:57:19;;;;;;;7.70;4.38;;;;;;;20.63;51.59;101992.72;4932050;28;114277;-72
2022/10/04 11:00:16;;;;;;;8.55;4.75;;;;;;;20.70;51.29;101999.41;4940575;28;113319;-72
2022/10/04 11:03:05;;;;;;;6.90;4.57;;;;;;;20.73;51.06;102001.88;4969278;28;123979;-72
2022/10/04 11:05:56;;;;;;;7.25;4.22;;;;;;;20.79;50.65;102003.28;4966103;28;123886;-72
2022/10/04 11:08:56;;;;;;;7.70;4.55;;;;;;;20.83;50.98;101991.31;4947544;28;114310;-73
2022/10/04 11:11:41;;;;;;;7.30;4.32;;;;;;;20.89;50.64;101990.03;4951620;28;111871;-72
2022/10/04 11:14:47;;;;;;;5.82;3.85;;;;;;;20.96;50.59;101994.00;4951537;28;124011;-72
2022/10/04 11:17:39;;;;;;;8.27;4.17;;;;;;;21.00;50.57;101984.72;4969532;28;123645;-72
2022/10/04 11:20:27;;;;;;;7.05;4.07;;;;;;;21.05;50.09;101979.03;4942208;28;113749;-72
2022/10/04 11:23:19;;;;;;;9.45;4.07;;;;;;;21.12;50.09;101977.63;4948990;28;113054;-73
2022/10/04 11:26:04;;;;;;;7.93;3.97;;;;;;;21.17;49.69;101970.94;4953879;28;124015;-72
2022/10/04 11:28:45;;;;;;;8.18;4.43;;;;;;;21.26;49.29;101963.16;4950462;28;123103;-72
2022/10/04 11:31:44;;;;;;;7.97;4.10;;;;;;;21.32;49.36;101957.31;4967833;28;113964;-72
2022/10/04 11:34:56;;;;;;;6.35;4.20;;;;;;;21.42;49.47;101954.81;4940218;28;113902;-72
2022/10/04 11:37:52;;;;;;;5.65;3.70;;;;;;;21.52;49.27;101943.25;4957235;28;124579;-72
2022/10/04 11:40:25;;;;;;;6.93;4.15;;;;;;;21.62;49.08;101947.97;4948359;28;123436;-72
2022/10/04 11:43:23;;;;;;;9.38;4.07;;;;;;;21.70;48.62;101940.16;4968888;28;114987;-72
2022/10/04 11:46:21;;;;;;;6.15;3.40;;;;;;;21.73;48.12;101945.34;4968832;28;115526;-72
2022/10/04 11:49:15;;;;;;;4.93;3.10;;;;;;;21.76;47.99;101942.44;4952156;28;123992;-72
2022/10/04 11:51:47;;;;;;;4.75;2.70;;;;;;;21.83;47.76;101946.38;4948364;28;123583;-72
2022/10/04 11:54:37;;;;;;;5.32;2.70;;;;;;;21.88;47.50;101933.41;4948417;28;114153;-72
2022/10/04 11:57:25;;;;;;;4.85;2.65;;;;;;;21.96;47.06;101931.00;4947639;28;112631;-72
2022/10/04 12:00:15;;;;;;;5.47;3.15;;;;;;;22.03;47.11;101917.88;4953886;28;123320;-72
2022/10/04 12:03:08;;;;;;;4.90;2.90;;;;;;;22.10;46.78;101910.19;4964253;28;124558;-72
2022/10/04 12:05:55;;;;;;;7.53;3.00;;;;;;;22.18;46.78;101915.84;4964155;28;114261;-73
2022/10/04 12:08:36;;;;;;;6.57;3.00;;;;;;;22.29;46.55;101921.31;4969894;28;113958;-72
2022/10/04 12:11:21;;;;;;;6.28;3.08;;;;;;;22.40;46.51;101927.72;4948086;28;123127;-72
2022/10/04 12:14:20;;;;;;;5.40;3.20;;;;;;;22.51;46.11;101930.44;4945670;28;123451;-72
2022/10/04 12:17:07;;;;;;;5.93;2.95;;;;;;;22.57;45.55;101921.84;4942086;28;113126;-73
2022/10/04 12:19:46;;;;;;;6.53;2.70;;;;;;;22.61;45.40;101912.53;4970820;28;113631;-72
2022/10/04 12:22:32;;;;;;;6.22;2.78;;;;;;;22.64;45.23;101920.38;4970982;28;123036;-73
2022/10/04 12:25:18;;;;;;;6.47;2.88;;;;;;;22.65;45.35;101916.69;4937243;28;123118;-72
2022/10/04 12:28:22;;;;;;;6.40;2.90;;;;;;;22.67;45.16;101909.31;4969792;28;115044;-72